sensor_id;sensor_type;location;lat;lon;timestamp;temperature;humidity
52565;DHT22;38460;53.106;7.004;2024-02-26T00:01:27;3.10;99.90
52565;DHT22;38460;53.106;7.004;2024-02-26T00:03:53;3.10;99.90
52565;DHT22;38460;53.106;7.004;2024-02-26T00:06:19;3.10;99.90
52565;DHT22;38460;53.106;7.004;2024-02-26T00:08:45;3.10;99.90
52565;DHT22;38460;53.106;7.004;2024-02-26T00:11:11;3.20;99.90
52565;DHT22;38460;53.106;7.004;2024-02-26T00:13:36;3.10;99.90
52565;DHT22;38460;53.106;7.004;2024-02-26T00:16:05;3.20;99.90
52565;DHT22;38460;53.106;7.004;2024-02-26T00:18:33;3.30;99.90
52565;DHT22;38460;53.106;7.004;2024-02-26T00:20:59;3.30;99.90
52565;DHT22;38460;53.106;7.004;2024-02-26T00:23:24;3.30;99.90
52565;DHT22;38460;53.106;7.004;2024-02-26T00:25:50;3.30;99.90
52565;DHT22;38460;53.106;7.004;2024-02-26T00:28:16;3.30;99.90
52565;DHT22;38460;53.106;7.004;2024-02-26T00:30:42;3.40;99.90
52565;DHT22;38460;53.106;7.004;2024-02-26T00:33:07;3.40;99.90
52565;DHT22;38460;53.106;7.004;2024-02-26T00:35:33;3.40;99.90
52565;DHT22;38460;53.106;7.004;2024-02-26T00:37:59;3.40;99.90
52565;DHT22;38460;53.106;7.004;2024-02-26T00:40:26;3.40;99.90
52565;DHT22;38460;53.106;7.004;2024-02-26T00:42:52;3.40;99.90
52565;DHT22;38460;53.106;7.004;2024-02-26T00:45:19;3.40;99.90
52565;DHT22;38460;53.106;7.004;2024-02-26T00:47:45;3.40;99.90
52565;DHT22;38460;53.106;7.004;2024-02-26T00:50:12;3.40;99.90
52565;DHT22;38460;53.106;7.004;2024-02-26T00:52:38;3.40;99.90
52565;DHT22;38460;53.106;7.004;2024-02-26T00:55:04;3.50;99.90
52565;DHT22;38460;53.106;7.004;2024-02-26T00:57:30;3.50;99.90
52565;DHT22;38460;53.106;7.004;2024-02-26T00:59:56;3.50;99.90
52565;DHT22;38460;53.106;7.004;2024-02-26T01:02:22;3.50;99.90
52565;DHT22;38460;53.106;7.004;2024-02-26T01:04:48;3.60;99.90
52565;DHT22;38460;53.106;7.004;2024-02-26T01:07:14;3.60;99.90
52565;DHT22;38460;53.106;7.004;2024-02-26T01:09:39;3.50;99.90
52565;DHT22;38460;53.106;7.004;2024-02-26T01:12:05;3.60;99.90
52565;DHT22;38460;53.106;7.004;2024-02-26T01:14:31;3.60;99.90
52565;DHT22;38460;53.106;7.004;2024-02-26T01:16:57;3.60;99.90
52565;DHT22;38460;53.106;7.004;2024-02-26T01:19:22;3.60;99.90
52565;DHT22;38460;53.106;7.004;2024-02-26T01:21:48;3.90;99.90
52565;DHT22;38460;53.106;7.004;2024-02-26T01:24:14;3.70;99.90
52565;DHT22;38460;53.106;7.004;2024-02-26T01:26:41;3.70;99.90
52565;DHT22;38460;53.106;7.004;2024-02-26T01:29:07;3.70;99.90
52565;DHT22;38460;53.106;7.004;2024-02-26T01:31:32;3.80;99.90
52565;DHT22;38460;53.106;7.004;2024-02-26T01:33:58;3.70;99.90
52565;DHT22;38460;53.106;7.004;2024-02-26T01:36:24;3.60;99.90
52565;DHT22;38460;53.106;7.004;2024-02-26T01:38:51;3.60;99.90
52565;DHT22;38460;53.106;7.004;2024-02-26T01:41:16;3.60;99.90
52565;DHT22;38460;53.106;7.004;2024-02-26T01:43:42;3.50;99.90
52565;DHT22;38460;53.106;7.004;2024-02-26T01:46:12;3.50;99.90
52565;DHT22;38460;53.106;7.004;2024-02-26T01:48:41;3.50;99.90
52565;DHT22;38460;53.106;7.004;2024-02-26T01:51:07;3.40;99.90
52565;DHT22;38460;53.106;7.004;2024-02-26T01:53:33;3.50;99.90
52565;DHT22;38460;53.106;7.004;2024-02-26T01:55:59;3.40;99.90
52565;DHT22;38460;53.106;7.004;2024-02-26T01:58:25;3.40;99.90
52565;DHT22;38460;53.106;7.004;2024-02-26T02:00:51;3.40;99.90
52565;DHT22;38460;53.106;7.004;2024-02-26T02:03:17;3.40;99.90
52565;DHT22;38460;53.106;7.004;2024-02-26T02:05:43;3.30;99.90
52565;DHT22;38460;53.106;7.004;2024-02-26T02:08:10;3.30;99.90
52565;DHT22;38460;53.106;7.004;2024-02-26T02:10:42;3.60;99.90
52565;DHT22;38460;53.106;7.004;2024-02-26T02:13:08;3.40;99.90
52565;DHT22;38460;53.106;7.004;2024-02-26T02:15:34;3.30;99.90
52565;DHT22;38460;53.106;7.004;2024-02-26T02:18:00;3.30;99.90
52565;DHT22;38460;53.106;7.004;2024-02-26T02:20:35;3.30;99.90
52565;DHT22;38460;53.106;7.004;2024-02-26T02:23:02;3.30;99.90
52565;DHT22;38460;53.106;7.004;2024-02-26T02:25:28;3.20;99.90
52565;DHT22;38460;53.106;7.004;2024-02-26T02:27:54;3.20;99.90
52565;DHT22;38460;53.106;7.004;2024-02-26T02:30:31;3.30;99.90
52565;DHT22;38460;53.106;7.004;2024-02-26T02:32:58;3.10;99.90
52565;DHT22;38460;53.106;7.004;2024-02-26T02:35:25;3.10;99.90
52565;DHT22;38460;53.106;7.004;2024-02-26T02:37:55;3.30;99.90
52565;DHT22;38460;53.106;7.004;2024-02-26T02:40:21;3.20;99.90
52565;DHT22;38460;53.106;7.004;2024-02-26T02:42:47;3.10;99.90
52565;DHT22;38460;53.106;7.004;2024-02-26T02:45:12;3.20;99.90
52565;DHT22;38460;53.106;7.004;2024-02-26T02:47:38;3.10;99.90
52565;DHT22;38460;53.106;7.004;2024-02-26T02:50:04;3.10;99.90
52565;DHT22;38460;53.106;7.004;2024-02-26T02:52:30;3.10;99.90
52565;DHT22;38460;53.106;7.004;2024-02-26T02:54:56;3.00;99.90
52565;DHT22;38460;53.106;7.004;2024-02-26T02:57:22;3.00;99.90
52565;DHT22;38460;53.106;7.004;2024-02-26T02:59:48;3.00;99.90
52565;DHT22;38460;53.106;7.004;2024-02-26T03:02:13;3.10;99.90
52565;DHT22;38460;53.106;7.004;2024-02-26T03:04:39;3.00;99.90
52565;DHT22;38460;53.106;7.004;2024-02-26T03:07:05;3.00;99.90
52565;DHT22;38460;53.106;7.004;2024-02-26T03:09:31;3.00;99.90
52565;DHT22;38460;53.106;7.004;2024-02-26T03:11:57;3.00;99.90
52565;DHT22;38460;53.106;7.004;2024-02-26T03:14:23;3.00;99.90
52565;DHT22;38460;53.106;7.004;2024-02-26T03:16:49;4.20;99.90
52565;DHT22;38460;53.106;7.004;2024-02-26T03:19:15;3.00;99.90
52565;DHT22;38460;53.106;7.004;2024-02-26T03:21:44;3.00;99.90
52565;DHT22;38460;53.106;7.004;2024-02-26T03:24:10;3.00;99.90
52565;DHT22;38460;53.106;7.004;2024-02-26T03:26:36;2.90;99.90
52565;DHT22;38460;53.106;7.004;2024-02-26T03:29:02;2.90;99.90
52565;DHT22;38460;53.106;7.004;2024-02-26T03:31:28;2.90;99.90
52565;DHT22;38460;53.106;7.004;2024-02-26T03:33:54;2.90;99.90
52565;DHT22;38460;53.106;7.004;2024-02-26T03:36:20;2.90;99.90
52565;DHT22;38460;53.106;7.004;2024-02-26T03:38:50;2.90;99.90
52565;DHT22;38460;53.106;7.004;2024-02-26T03:41:16;2.90;99.90
52565;DHT22;38460;53.106;7.004;2024-02-26T03:43:41;2.90;99.90
52565;DHT22;38460;53.106;7.004;2024-02-26T03:46:08;2.90;99.90
52565;DHT22;38460;53.106;7.004;2024-02-26T03:48:35;2.90;99.90
52565;DHT22;38460;53.106;7.004;2024-02-26T03:51:00;2.90;99.90
52565;DHT22;38460;53.106;7.004;2024-02-26T03:53:26;3.00;99.90
52565;DHT22;38460;53.106;7.004;2024-02-26T03:55:52;3.00;99.90
52565;DHT22;38460;53.106;7.004;2024-02-26T03:58:18;3.00;99.90
52565;DHT22;38460;53.106;7.004;2024-02-26T04:00:44;3.00;99.90
52565;DHT22;38460;53.106;7.004;2024-02-26T04:03:10;2.90;99.90
52565;DHT22;38460;53.106;7.004;2024-02-26T04:05:35;3.10;99.90
52565;DHT22;38460;53.106;7.004;2024-02-26T04:08:01;2.90;99.90
52565;DHT22;38460;53.106;7.004;2024-02-26T04:10:29;2.90;99.90
52565;DHT22;38460;53.106;7.004;2024-02-26T04:12:55;2.90;99.90
52565;DHT22;38460;53.106;7.004;2024-02-26T04:15:21;2.90;99.90
52565;DHT22;38460;53.106;7.004;2024-02-26T04:17:46;2.90;99.90
52565;DHT22;38460;53.106;7.004;2024-02-26T04:20:15;2.90;99.90
52565;DHT22;38460;53.106;7.004;2024-02-26T04:22:42;2.90;99.90
52565;DHT22;38460;53.106;7.004;2024-02-26T04:25:08;2.90;99.90
52565;DHT22;38460;53.106;7.004;2024-02-26T04:27:34;2.90;99.90
52565;DHT22;38460;53.106;7.004;2024-02-26T04:29:59;2.90;99.90
52565;DHT22;38460;53.106;7.004;2024-02-26T04:32:25;2.90;99.90
52565;DHT22;38460;53.106;7.004;2024-02-26T04:34:51;3.20;99.90
52565;DHT22;38460;53.106;7.004;2024-02-26T04:37:17;2.80;99.90
52565;DHT22;38460;53.106;7.004;2024-02-26T04:39:42;2.80;99.90
52565;DHT22;38460;53.106;7.004;2024-02-26T04:42:08;2.80;99.90
52565;DHT22;38460;53.106;7.004;2024-02-26T04:44:34;2.80;99.90
52565;DHT22;38460;53.106;7.004;2024-02-26T04:47:00;2.80;99.90
52565;DHT22;38460;53.106;7.004;2024-02-26T04:49:27;2.80;99.90
52565;DHT22;38460;53.106;7.004;2024-02-26T04:51:52;2.80;99.90
52565;DHT22;38460;53.106;7.004;2024-02-26T04:54:20;2.80;99.90
52565;DHT22;38460;53.106;7.004;2024-02-26T04:56:46;2.80;99.90
52565;DHT22;38460;53.106;7.004;2024-02-26T04:59:12;2.80;99.90
52565;DHT22;38460;53.106;7.004;2024-02-26T05:01:37;2.80;99.90
52565;DHT22;38460;53.106;7.004;2024-02-26T05:04:03;2.80;99.90
52565;DHT22;38460;53.106;7.004;2024-02-26T05:06:29;2.80;99.90
52565;DHT22;38460;53.106;7.004;2024-02-26T05:08:55;2.80;99.90
52565;DHT22;38460;53.106;7.004;2024-02-26T05:11:21;2.80;99.90
52565;DHT22;38460;53.106;7.004;2024-02-26T05:13:48;2.80;99.90
52565;DHT22;38460;53.106;7.004;2024-02-26T05:16:13;2.80;99.90
52565;DHT22;38460;53.106;7.004;2024-02-26T05:18:39;2.80;99.90
52565;DHT22;38460;53.106;7.004;2024-02-26T05:21:05;2.80;99.90
52565;DHT22;38460;53.106;7.004;2024-02-26T05:23:31;2.80;99.90
52565;DHT22;38460;53.106;7.004;2024-02-26T05:25:57;2.80;99.90
52565;DHT22;38460;53.106;7.004;2024-02-26T05:28:22;2.80;99.90
52565;DHT22;38460;53.106;7.004;2024-02-26T05:30:48;2.80;99.90
52565;DHT22;38460;53.106;7.004;2024-02-26T05:33:14;2.80;99.90
52565;DHT22;38460;53.106;7.004;2024-02-26T05:35:40;2.80;99.90
52565;DHT22;38460;53.106;7.004;2024-02-26T05:38:06;2.80;99.90
52565;DHT22;38460;53.106;7.004;2024-02-26T05:40:31;2.80;99.90
52565;DHT22;38460;53.106;7.004;2024-02-26T05:42:57;2.80;99.90
52565;DHT22;38460;53.106;7.004;2024-02-26T05:45:23;2.80;99.90
52565;DHT22;38460;53.106;7.004;2024-02-26T05:47:49;2.80;99.90
52565;DHT22;38460;53.106;7.004;2024-02-26T05:50:15;2.80;99.90
52565;DHT22;38460;53.106;7.004;2024-02-26T05:52:41;2.90;99.90
52565;DHT22;38460;53.106;7.004;2024-02-26T05:55:07;2.80;99.90
52565;DHT22;38460;53.106;7.004;2024-02-26T05:57:34;2.80;99.90
52565;DHT22;38460;53.106;7.004;2024-02-26T06:00:00;2.80;99.90
52565;DHT22;38460;53.106;7.004;2024-02-26T06:02:30;2.80;99.90
52565;DHT22;38460;53.106;7.004;2024-02-26T06:04:56;2.80;99.90
52565;DHT22;38460;53.106;7.004;2024-02-26T06:07:22;2.90;99.90
52565;DHT22;38460;53.106;7.004;2024-02-26T06:09:47;2.90;99.90
52565;DHT22;38460;53.106;7.004;2024-02-26T06:12:14;2.90;99.90
52565;DHT22;38460;53.106;7.004;2024-02-26T06:14:40;2.90;99.90
52565;DHT22;38460;53.106;7.004;2024-02-26T06:17:05;2.90;99.90
52565;DHT22;38460;53.106;7.004;2024-02-26T06:19:32;2.90;99.90
52565;DHT22;38460;53.106;7.004;2024-02-26T06:21:58;2.90;99.90
52565;DHT22;38460;53.106;7.004;2024-02-26T06:24:24;2.90;99.90
52565;DHT22;38460;53.106;7.004;2024-02-26T06:26:49;2.90;99.90
52565;DHT22;38460;53.106;7.004;2024-02-26T06:29:15;3.00;99.90
52565;DHT22;38460;53.106;7.004;2024-02-26T06:31:41;2.90;99.90
52565;DHT22;38460;53.106;7.004;2024-02-26T06:34:07;2.90;99.90
52565;DHT22;38460;53.106;7.004;2024-02-26T06:36:32;2.90;99.90
52565;DHT22;38460;53.106;7.004;2024-02-26T06:38:58;2.90;99.90
52565;DHT22;38460;53.106;7.004;2024-02-26T06:41:24;2.90;99.90
52565;DHT22;38460;53.106;7.004;2024-02-26T06:43:54;2.90;99.90
52565;DHT22;38460;53.106;7.004;2024-02-26T06:46:19;2.90;99.90
52565;DHT22;38460;53.106;7.004;2024-02-26T06:48:45;2.90;99.90
52565;DHT22;38460;53.106;7.004;2024-02-26T06:51:11;3.00;99.90
52565;DHT22;38460;53.106;7.004;2024-02-26T06:53:37;3.00;99.90
52565;DHT22;38460;53.106;7.004;2024-02-26T06:56:02;3.00;99.90
52565;DHT22;38460;53.106;7.004;2024-02-26T06:58:28;3.00;99.90
52565;DHT22;38460;53.106;7.004;2024-02-26T07:00:54;3.00;99.90
52565;DHT22;38460;53.106;7.004;2024-02-26T07:03:20;3.00;99.90
52565;DHT22;38460;53.106;7.004;2024-02-26T07:05:45;3.00;99.90
52565;DHT22;38460;53.106;7.004;2024-02-26T07:08:11;3.00;99.90
52565;DHT22;38460;53.106;7.004;2024-02-26T07:10:37;3.10;99.90
52565;DHT22;38460;53.106;7.004;2024-02-26T07:13:03;3.10;99.90
52565;DHT22;38460;53.106;7.004;2024-02-26T07:15:29;3.10;99.90
52565;DHT22;38460;53.106;7.004;2024-02-26T07:17:54;3.20;99.90
52565;DHT22;38460;53.106;7.004;2024-02-26T07:20:20;3.80;99.90
52565;DHT22;38460;53.106;7.004;2024-02-26T07:22:46;3.20;99.90
52565;DHT22;38460;53.106;7.004;2024-02-26T07:25:12;3.20;99.90
52565;DHT22;38460;53.106;7.004;2024-02-26T07:27:39;3.20;99.90
52565;DHT22;38460;53.106;7.004;2024-02-26T07:30:06;3.20;99.90
52565;DHT22;38460;53.106;7.004;2024-02-26T07:32:34;3.20;99.90
52565;DHT22;38460;53.106;7.004;2024-02-26T07:34:59;3.20;99.90
52565;DHT22;38460;53.106;7.004;2024-02-26T07:37:25;3.20;99.90
52565;DHT22;38460;53.106;7.004;2024-02-26T07:39:51;3.20;99.90
52565;DHT22;38460;53.106;7.004;2024-02-26T07:42:16;3.20;99.90
52565;DHT22;38460;53.106;7.004;2024-02-26T07:44:42;3.20;99.90
52565;DHT22;38460;53.106;7.004;2024-02-26T07:47:12;3.20;99.90
52565;DHT22;38460;53.106;7.004;2024-02-26T07:49:37;3.30;99.90
52565;DHT22;38460;53.106;7.004;2024-02-26T07:52:03;3.30;99.90
52565;DHT22;38460;53.106;7.004;2024-02-26T07:54:29;3.20;99.90
52565;DHT22;38460;53.106;7.004;2024-02-26T07:56:55;3.20;99.90
52565;DHT22;38460;53.106;7.004;2024-02-26T07:59:20;3.20;99.90
52565;DHT22;38460;53.106;7.004;2024-02-26T08:01:52;3.30;99.90
52565;DHT22;38460;53.106;7.004;2024-02-26T08:04:18;3.30;99.90
52565;DHT22;38460;53.106;7.004;2024-02-26T08:06:44;3.20;99.90
52565;DHT22;38460;53.106;7.004;2024-02-26T08:09:10;3.30;99.90
52565;DHT22;38460;53.106;7.004;2024-02-26T08:11:38;3.60;99.90
52565;DHT22;38460;53.106;7.004;2024-02-26T08:14:04;3.30;99.90
52565;DHT22;38460;53.106;7.004;2024-02-26T08:16:30;3.30;99.90
52565;DHT22;38460;53.106;7.004;2024-02-26T08:18:55;3.40;99.90
52565;DHT22;38460;53.106;7.004;2024-02-26T08:21:21;3.40;99.90
52565;DHT22;38460;53.106;7.004;2024-02-26T08:23:47;3.40;99.90
52565;DHT22;38460;53.106;7.004;2024-02-26T08:26:13;3.40;99.90
52565;DHT22;38460;53.106;7.004;2024-02-26T08:28:38;3.40;99.90
52565;DHT22;38460;53.106;7.004;2024-02-26T08:31:04;3.50;99.90
52565;DHT22;38460;53.106;7.004;2024-02-26T08:33:30;3.50;99.90
52565;DHT22;38460;53.106;7.004;2024-02-26T08:35:56;3.50;99.90
52565;DHT22;38460;53.106;7.004;2024-02-26T08:38:22;3.50;99.90
52565;DHT22;38460;53.106;7.004;2024-02-26T08:40:48;3.50;99.90
52565;DHT22;38460;53.106;7.004;2024-02-26T08:43:14;3.50;99.90
52565;DHT22;38460;53.106;7.004;2024-02-26T08:45:40;3.60;99.90
52565;DHT22;38460;53.106;7.004;2024-02-26T08:48:06;3.60;99.90
52565;DHT22;38460;53.106;7.004;2024-02-26T08:50:33;3.60;99.90
52565;DHT22;38460;53.106;7.004;2024-02-26T08:52:58;3.60;99.90
52565;DHT22;38460;53.106;7.004;2024-02-26T08:55:26;3.60;99.90
52565;DHT22;38460;53.106;7.004;2024-02-26T08:57:52;3.60;99.90
52565;DHT22;38460;53.106;7.004;2024-02-26T09:00:18;3.60;99.90
52565;DHT22;38460;53.106;7.004;2024-02-26T09:02:49;3.70;99.90
52565;DHT22;38460;53.106;7.004;2024-02-26T09:05:15;3.70;99.90
52565;DHT22;38460;53.106;7.004;2024-02-26T09:07:41;3.60;99.90
52565;DHT22;38460;53.106;7.004;2024-02-26T09:10:07;3.70;99.90
52565;DHT22;38460;53.106;7.004;2024-02-26T09:12:37;3.70;99.90
52565;DHT22;38460;53.106;7.004;2024-02-26T09:15:03;3.70;99.90
52565;DHT22;38460;53.106;7.004;2024-02-26T09:17:30;3.70;99.90
52565;DHT22;38460;53.106;7.004;2024-02-26T09:19:56;3.80;99.90
52565;DHT22;38460;53.106;7.004;2024-02-26T09:22:22;3.80;99.90
52565;DHT22;38460;53.106;7.004;2024-02-26T09:24:48;3.80;99.90
52565;DHT22;38460;53.106;7.004;2024-02-26T09:27:15;3.80;99.90
52565;DHT22;38460;53.106;7.004;2024-02-26T09:29:42;3.90;99.90
52565;DHT22;38460;53.106;7.004;2024-02-26T09:32:07;3.90;99.90
52565;DHT22;38460;53.106;7.004;2024-02-26T09:34:33;3.90;99.90
52565;DHT22;38460;53.106;7.004;2024-02-26T09:36:59;4.00;99.90
52565;DHT22;38460;53.106;7.004;2024-02-26T09:39:26;4.00;99.90
52565;DHT22;38460;53.106;7.004;2024-02-26T09:41:53;4.00;99.90
52565;DHT22;38460;53.106;7.004;2024-02-26T09:44:20;4.00;99.90
52565;DHT22;38460;53.106;7.004;2024-02-26T09:46:48;4.10;99.90
52565;DHT22;38460;53.106;7.004;2024-02-26T09:49:18;4.00;99.90
52565;DHT22;38460;53.106;7.004;2024-02-26T09:51:44;4.10;99.90
52565;DHT22;38460;53.106;7.004;2024-02-26T09:54:10;4.10;99.90
52565;DHT22;38460;53.106;7.004;2024-02-26T09:56:39;4.10;99.90
52565;DHT22;38460;53.106;7.004;2024-02-26T09:59:13;4.20;99.90
52565;DHT22;38460;53.106;7.004;2024-02-26T10:01:42;4.10;99.90
52565;DHT22;38460;53.106;7.004;2024-02-26T10:04:09;4.20;99.90
52565;DHT22;38460;53.106;7.004;2024-02-26T10:06:36;4.20;99.90
52565;DHT22;38460;53.106;7.004;2024-02-26T10:09:03;4.20;99.90
52565;DHT22;38460;53.106;7.004;2024-02-26T10:11:32;4.30;99.90
52565;DHT22;38460;53.106;7.004;2024-02-26T10:13:58;4.40;99.90
52565;DHT22;38460;53.106;7.004;2024-02-26T10:16:25;4.40;99.90
52565;DHT22;38460;53.106;7.004;2024-02-26T10:18:52;4.40;99.90
52565;DHT22;38460;53.106;7.004;2024-02-26T10:21:21;4.40;99.90
52565;DHT22;38460;53.106;7.004;2024-02-26T10:23:47;4.40;99.90
52565;DHT22;38460;53.106;7.004;2024-02-26T10:26:14;4.50;99.90
52565;DHT22;38460;53.106;7.004;2024-02-26T10:28:42;4.50;99.90
52565;DHT22;38460;53.106;7.004;2024-02-26T10:31:08;4.50;99.90
52565;DHT22;38460;53.106;7.004;2024-02-26T10:33:35;4.50;99.90
52565;DHT22;38460;53.106;7.004;2024-02-26T10:36:05;4.60;99.90
52565;DHT22;38460;53.106;7.004;2024-02-26T10:38:35;4.60;99.90
52565;DHT22;38460;53.106;7.004;2024-02-26T10:41:02;4.60;99.90
52565;DHT22;38460;53.106;7.004;2024-02-26T10:43:28;4.60;99.90
52565;DHT22;38460;53.106;7.004;2024-02-26T10:45:55;4.70;99.90
52565;DHT22;38460;53.106;7.004;2024-02-26T10:48:21;4.70;99.90
52565;DHT22;38460;53.106;7.004;2024-02-26T10:50:47;4.70;99.90
52565;DHT22;38460;53.106;7.004;2024-02-26T10:53:17;4.70;99.90
52565;DHT22;38460;53.106;7.004;2024-02-26T10:56:00;4.70;99.90
52565;DHT22;38460;53.106;7.004;2024-02-26T10:58:27;4.70;99.90
52565;DHT22;38460;53.106;7.004;2024-02-26T11:00:56;4.70;99.90
52565;DHT22;38460;53.106;7.004;2024-02-26T11:03:22;4.80;99.90
52565;DHT22;38460;53.106;7.004;2024-02-26T11:05:50;4.70;99.90
52565;DHT22;38460;53.106;7.004;2024-02-26T11:08:18;4.70;99.90
52565;DHT22;38460;53.106;7.004;2024-02-26T11:10:47;4.70;99.90
52565;DHT22;38460;53.106;7.004;2024-02-26T11:13:15;4.70;99.90
52565;DHT22;38460;53.106;7.004;2024-02-26T11:15:46;4.80;99.90
52565;DHT22;38460;53.106;7.004;2024-02-26T11:18:15;4.80;99.90
52565;DHT22;38460;53.106;7.004;2024-02-26T11:20:41;4.80;99.90
52565;DHT22;38460;53.106;7.004;2024-02-26T11:23:08;4.90;99.90
52565;DHT22;38460;53.106;7.004;2024-02-26T11:25:35;4.90;99.90
52565;DHT22;38460;53.106;7.004;2024-02-26T11:28:05;4.90;99.90
52565;DHT22;38460;53.106;7.004;2024-02-26T11:30:34;4.90;99.90
52565;DHT22;38460;53.106;7.004;2024-02-26T11:33:01;4.90;99.90
52565;DHT22;38460;53.106;7.004;2024-02-26T11:35:27;5.00;99.90
52565;DHT22;38460;53.106;7.004;2024-02-26T11:37:55;5.00;99.90
52565;DHT22;38460;53.106;7.004;2024-02-26T11:40:25;5.00;99.90
52565;DHT22;38460;53.106;7.004;2024-02-26T11:42:53;5.10;99.90
52565;DHT22;38460;53.106;7.004;2024-02-26T11:48:20;5.10;99.90
52565;DHT22;38460;53.106;7.004;2024-02-26T11:50:54;5.20;99.90
52565;DHT22;38460;53.106;7.004;2024-02-26T11:53:28;5.20;99.90
52565;DHT22;38460;53.106;7.004;2024-02-26T11:58:43;5.20;99.90
52565;DHT22;38460;53.106;7.004;2024-02-26T12:01:44;5.30;99.90
52565;DHT22;38460;53.106;7.004;2024-02-26T12:04:22;5.30;99.90
52565;DHT22;38460;53.106;7.004;2024-02-26T12:06:53;5.30;99.90
52565;DHT22;38460;53.106;7.004;2024-02-26T12:09:39;5.30;99.90
52565;DHT22;38460;53.106;7.004;2024-02-26T12:12:07;5.30;99.90
52565;DHT22;38460;53.106;7.004;2024-02-26T12:14:34;5.40;99.90
52565;DHT22;38460;53.106;7.004;2024-02-26T12:17:01;5.40;99.90
52565;DHT22;38460;53.106;7.004;2024-02-26T12:19:27;5.50;99.90
52565;DHT22;38460;53.106;7.004;2024-02-26T12:21:53;5.50;99.90
52565;DHT22;38460;53.106;7.004;2024-02-26T12:24:22;5.50;99.90
52565;DHT22;38460;53.106;7.004;2024-02-26T12:26:48;5.60;99.90
52565;DHT22;38460;53.106;7.004;2024-02-26T12:29:14;5.70;99.90
52565;DHT22;38460;53.106;7.004;2024-02-26T12:31:40;5.60;99.90
52565;DHT22;38460;53.106;7.004;2024-02-26T12:34:07;5.60;99.90
52565;DHT22;38460;53.106;7.004;2024-02-26T12:36:35;5.60;99.90
52565;DHT22;38460;53.106;7.004;2024-02-26T12:39:05;5.50;99.90
52565;DHT22;38460;53.106;7.004;2024-02-26T12:41:35;5.50;99.90
52565;DHT22;38460;53.106;7.004;2024-02-26T12:44:01;5.40;99.90
52565;DHT22;38460;53.106;7.004;2024-02-26T12:46:27;5.30;99.90
52565;DHT22;38460;53.106;7.004;2024-02-26T12:48:55;5.20;99.90
52565;DHT22;38460;53.106;7.004;2024-02-26T12:51:24;5.20;99.90
52565;DHT22;38460;53.106;7.004;2024-02-26T12:53:51;5.10;99.90
52565;DHT22;38460;53.106;7.004;2024-02-26T12:56:18;5.10;99.90
52565;DHT22;38460;53.106;7.004;2024-02-26T12:58:44;5.00;99.90
52565;DHT22;38460;53.106;7.004;2024-02-26T13:01:15;5.00;99.90
52565;DHT22;38460;53.106;7.004;2024-02-26T13:03:42;4.90;99.90
52565;DHT22;38460;53.106;7.004;2024-02-26T13:06:09;4.90;99.90
52565;DHT22;38460;53.106;7.004;2024-02-26T13:08:35;4.90;99.90
52565;DHT22;38460;53.106;7.004;2024-02-26T13:11:00;4.80;99.90
52565;DHT22;38460;53.106;7.004;2024-02-26T13:13:26;4.80;99.90
52565;DHT22;38460;53.106;7.004;2024-02-26T13:16:02;4.70;99.90
52565;DHT22;38460;53.106;7.004;2024-02-26T13:18:29;4.80;99.90
52565;DHT22;38460;53.106;7.004;2024-02-26T13:21:08;4.70;99.90
52565;DHT22;38460;53.106;7.004;2024-02-26T13:23:34;4.70;99.90
52565;DHT22;38460;53.106;7.004;2024-02-26T13:26:00;4.70;99.90
52565;DHT22;38460;53.106;7.004;2024-02-26T13:28:26;4.70;99.90
52565;DHT22;38460;53.106;7.004;2024-02-26T13:30:54;4.70;99.90
52565;DHT22;38460;53.106;7.004;2024-02-26T13:33:27;4.70;99.90
52565;DHT22;38460;53.106;7.004;2024-02-26T13:35:57;4.70;99.90
52565;DHT22;38460;53.106;7.004;2024-02-26T13:38:23;4.70;99.90
52565;DHT22;38460;53.106;7.004;2024-02-26T13:40:50;4.70;99.90
52565;DHT22;38460;53.106;7.004;2024-02-26T13:43:16;4.70;99.90
52565;DHT22;38460;53.106;7.004;2024-02-26T13:45:42;4.60;99.90
52565;DHT22;38460;53.106;7.004;2024-02-26T13:48:09;4.70;99.90
52565;DHT22;38460;53.106;7.004;2024-02-26T13:50:39;4.70;99.90
52565;DHT22;38460;53.106;7.004;2024-02-26T13:53:05;4.70;99.90
52565;DHT22;38460;53.106;7.004;2024-02-26T13:55:32;4.70;99.90
52565;DHT22;38460;53.106;7.004;2024-02-26T13:57:59;4.70;99.90
52565;DHT22;38460;53.106;7.004;2024-02-26T14:00:27;4.70;99.90
52565;DHT22;38460;53.106;7.004;2024-02-26T14:02:53;4.70;99.90
52565;DHT22;38460;53.106;7.004;2024-02-26T14:05:19;4.60;99.90
52565;DHT22;38460;53.106;7.004;2024-02-26T14:07:45;4.50;99.90
52565;DHT22;38460;53.106;7.004;2024-02-26T14:10:12;4.60;99.90
52565;DHT22;38460;53.106;7.004;2024-02-26T14:12:38;4.60;99.90
52565;DHT22;38460;53.106;7.004;2024-02-26T14:15:06;4.60;99.90
52565;DHT22;38460;53.106;7.004;2024-02-26T14:17:32;4.60;99.90
52565;DHT22;38460;53.106;7.004;2024-02-26T14:19:58;4.60;99.90
52565;DHT22;38460;53.106;7.004;2024-02-26T14:22:25;4.60;99.90
52565;DHT22;38460;53.106;7.004;2024-02-26T14:24:52;4.60;99.90
52565;DHT22;38460;53.106;7.004;2024-02-26T14:27:18;4.70;99.90
52565;DHT22;38460;53.106;7.004;2024-02-26T14:29:48;4.70;99.90
52565;DHT22;38460;53.106;7.004;2024-02-26T14:32:14;4.70;99.90
52565;DHT22;38460;53.106;7.004;2024-02-26T14:34:40;4.70;99.90
52565;DHT22;38460;53.106;7.004;2024-02-26T14:37:06;4.70;99.90
52565;DHT22;38460;53.106;7.004;2024-02-26T14:39:32;4.70;99.90
52565;DHT22;38460;53.106;7.004;2024-02-26T14:41:58;4.70;99.90
52565;DHT22;38460;53.106;7.004;2024-02-26T14:44:24;4.70;99.90
52565;DHT22;38460;53.106;7.004;2024-02-26T14:46:51;4.70;99.90
52565;DHT22;38460;53.106;7.004;2024-02-26T14:49:17;4.80;99.90
52565;DHT22;38460;53.106;7.004;2024-02-26T14:51:43;4.70;99.90
52565;DHT22;38460;53.106;7.004;2024-02-26T14:54:13;4.70;99.90
52565;DHT22;38460;53.106;7.004;2024-02-26T14:56:39;4.70;99.90
52565;DHT22;38460;53.106;7.004;2024-02-26T14:59:05;4.70;99.90
52565;DHT22;38460;53.106;7.004;2024-02-26T15:01:31;4.70;99.90
52565;DHT22;38460;53.106;7.004;2024-02-26T15:03:57;4.70;99.90
52565;DHT22;38460;53.106;7.004;2024-02-26T15:06:25;4.80;99.90
52565;DHT22;38460;53.106;7.004;2024-02-26T15:08:52;4.80;99.90
52565;DHT22;38460;53.106;7.004;2024-02-26T15:11:18;4.80;99.90
52565;DHT22;38460;53.106;7.004;2024-02-26T15:13:44;4.70;99.90
52565;DHT22;38460;53.106;7.004;2024-02-26T15:16:17;4.70;99.90
52565;DHT22;38460;53.106;7.004;2024-02-26T15:18:43;4.70;99.90
52565;DHT22;38460;53.106;7.004;2024-02-26T15:21:09;4.70;99.90
52565;DHT22;38460;53.106;7.004;2024-02-26T15:23:34;4.60;99.90
52565;DHT22;38460;53.106;7.004;2024-02-26T15:26:01;4.70;99.90
52565;DHT22;38460;53.106;7.004;2024-02-26T15:28:28;4.70;99.90
52565;DHT22;38460;53.106;7.004;2024-02-26T15:30:54;4.70;99.90
52565;DHT22;38460;53.106;7.004;2024-02-26T15:33:20;4.60;99.90
52565;DHT22;38460;53.106;7.004;2024-02-26T15:35:46;4.60;99.90
52565;DHT22;38460;53.106;7.004;2024-02-26T15:38:12;4.60;99.90
52565;DHT22;38460;53.106;7.004;2024-02-26T15:40:39;4.60;99.90
52565;DHT22;38460;53.106;7.004;2024-02-26T15:43:05;4.60;99.90
52565;DHT22;38460;53.106;7.004;2024-02-26T15:45:31;4.60;99.90
52565;DHT22;38460;53.106;7.004;2024-02-26T15:47:59;4.60;99.90